Time;durP1;ratioP1;P1;durP2;ratioP2;P2;SDS_P1;SDS_P2;PMS_P1;PMS_P2;Temp;Humidity;BMP_temperature;BMP_pressure;BME280_temperature;BME280_humidity;BME280_pressure;Samples;Min_cycle;Max_cycle;Signal;HPM_P1;HPM_P2
2022/10/02 00:01:55;;;;;;;21.13;5.47;;;;;;;12.41;100.00;101442.25;4975042;28;20043;-35
2022/10/02 00:04:25;;;;;;;16.58;4.57;;;;;;;12.40;100.00;101437.91;4974670;28;20122;-35
2022/10/02 00:06:53;;;;;;;17.38;4.57;;;;;;;12.28;100.00;101428.88;4974567;28;20053;-35
2022/10/02 00:09:27;;;;;;;14.75;4.55;;;;;;;12.14;100.00;101421.94;4974422;28;20038;-35
2022/10/02 00:11:57;;;;;;;22.67;5.00;;;;;;;12.22;100.00;101443.34;4974465;28;20030;-35
2022/10/02 00:14:24;;;;;;;17.30;4.55;;;;;;;12.16;100.00;101438.84;4974561;28;20109;-35
2022/10/02 00:16:53;;;;;;;17.75;5.20;;;;;;;12.07;100.00;101441.84;4974982;28;20034;-35
2022/10/02 00:19:19;;;;;;;18.15;4.38;;;;;;;12.05;100.00;101446.69;4974568;28;20114;-35
2022/10/02 00:21:55;;;;;;;23.52;5.35;;;;;;;12.07;100.00;101444.56;4974767;28;20449;-35
2022/10/02 00:24:26;;;;;;;15.23;4.45;;;;;;;11.92;100.00;101441.38;4974927;28;20110;-35
2022/10/02 00:26:59;;;;;;;17.40;4.57;;;;;;;11.98;100.00;101451.31;4974299;28;20090;-35
2022/10/02 00:29:48;;;;;;;13.45;4.28;;;;;;;11.87;100.00;101454.78;4974229;28;20197;-35
2022/10/02 00:32:25;;;;;;;15.98;4.43;;;;;;;11.80;100.00;101449.38;4979758;28;20093;-35
2022/10/02 00:35:18;;;;;;;16.55;4.88;;;;;;;11.74;100.00;101454.88;5055427;28;20086;-35
2022/10/02 00:38:09;;;;;;;17.05;4.60;;;;;;;11.73;100.00;101456.78;5054824;28;20057;-35
2022/10/02 00:40:48;;;;;;;22.85;6.00;;;;;;;11.75;100.00;101456.53;4974595;28;20038;-35
2022/10/02 00:43:30;;;;;;;17.60;5.05;;;;;;;11.64;100.00;101443.75;4985181;28;20503;-34
2022/10/02 00:46:22;;;;;;;22.15;5.53;;;;;;;11.69;100.00;101449.31;4993944;28;20403;-35
2022/10/02 00:49:23;;;;;;;21.85;5.43;;;;;;;11.71;100.00;101450.75;4993745;28;20061;-35
2022/10/02 00:52:28;;;;;;;18.60;5.40;;;;;;;11.73;100.00;101459.47;4993320;28;20057;-35
2022/10/02 00:55:13;;;;;;;19.63;4.68;;;;;;;11.72;100.00;101457.00;4993161;28;20038;-35
2022/10/02 00:57:58;;;;;;;16.52;4.38;;;;;;;11.74;100.00;101458.41;4992648;28;20378;-35
2022/10/02 01:00:25;;;;;;;18.85;4.57;;;;;;;11.75;100.00;101443.00;4993324;28;20037;-35
2022/10/02 01:03:17;;;;;;;23.27;4.72;;;;;;;11.85;100.00;101451.47;4993325;28;20078;-35
2022/10/02 01:05:43;;;;;;;22.42;5.30;;;;;;;11.89;100.00;101447.25;4991065;28;20049;-35
2022/10/02 01:08:08;;;;;;;18.08;4.32;;;;;;;11.88;100.00;101439.34;4993607;28;20077;-35
2022/10/02 01:10:36;;;;;;;21.23;4.72;;;;;;;11.88;100.00;101445.59;4992814;28;20035;-34
2022/10/02 01:13:01;;;;;;;20.40;4.40;;;;;;;11.93;100.00;101451.16;4992819;28;20073;-35
2022/10/02 01:15:34;;;;;;;20.73;5.10;;;;;;;11.91;100.00;101442.44;4992872;28;20054;-35
2022/10/02 01:18:01;;;;;;;21.38;4.40;;;;;;;11.91;100.00;101444.31;5031889;28;20400;-35
2022/10/02 01:20:46;;;;;;;26.92;5.38;;;;;;;11.94;100.00;101436.56;5036272;28;20195;-35
2022/10/02 01:23:20;;;;;;;18.02;4.18;;;;;;;11.98;100.00;101439.66;5054422;28;20029;-35
2022/10/02 01:25:46;;;;;;;17.60;4.05;;;;;;;11.85;100.00;101418.94;5054354;28;20107;-35
2022/10/02 01:28:11;;;;;;;24.08;5.07;;;;;;;12.01;100.00;101440.03;5054499;28;20025;-35
2022/10/02 01:30:41;;;;;;;25.80;5.20;;;;;;;12.05;100.00;101441.25;5054589;28;20028;-34
2022/10/02 01:33:08;;;;;;;20.52;4.47;;;;;;;12.11;100.00;101439.50;5053952;28;20100;-35
2022/10/02 01:35:36;;;;;;;22.35;5.07;;;;;;;12.11;100.00;101448.47;5054206;28;20112;-34
2022/10/02 01:38:07;;;;;;;19.80;4.25;;;;;;;12.06;100.00;101448.31;5054453;28;20121;-35
2022/10/02 01:40:34;;;;;;;23.95;4.93;;;;;;;12.16;100.00;101453.22;5053555;28;20025;-35
2022/10/02 01:43:06;;;;;;;28.73;5.45;;;;;;;12.17;100.00;101448.63;5054155;28;20021;-35
2022/10/02 01:45:54;;;;;;;22.80;5.15;;;;;;;12.18;100.00;101447.56;5054141;28;20025;-35
2022/10/02 01:48:25;;;;;;;22.05;4.30;;;;;;;12.22;100.00;101452.31;4973392;28;20062;-35
2022/10/02 01:51:08;;;;;;;23.98;5.38;;;;;;;12.23;100.00;101461.25;4971671;28;20049;-35
2022/10/02 01:53:49;;;;;;;22.50;4.53;;;;;;;12.27;100.00;101457.88;4972950;28;20483;-34
2022/10/02 01:56:18;;;;;;;26.25;5.45;;;;;;;12.31;100.00;101455.53;4973213;28;20387;-35
2022/10/02 01:59:20;;;;;;;27.85;5.15;;;;;;;12.31;100.00;101455.53;4972523;28;20483;-35
2022/10/02 02:02:04;;;;;;;21.33;4.28;;;;;;;12.31;100.00;101455.53;4973128;28;20416;-35
2022/10/02 02:04:50;;;;;;;23.20;4.78;;;;;;;12.28;100.00;101450.56;4972506;28;20113;-35
2022/10/02 02:08:05;;;;;;;33.13;5.72;;;;;;;12.35;100.00;101459.47;4973161;28;20118;-35
2022/10/02 02:10:46;;;;;;;22.60;4.70;;;;;;;12.35;100.00;101462.19;4972298;28;20030;-35
2022/10/02 02:13:29;;;;;;;21.88;5.05;;;;;;;12.26;100.00;101442.66;4972360;28;20138;-35
2022/10/02 02:16:01;;;;;;;29.38;5.32;;;;;;;12.41;100.00;101466.69;4972425;28;20035;-35
2022/10/02 02:18:56;;;;;;;26.45;6.00;;;;;;;12.39;100.00;101468.78;4972286;28;20069;-35
2022/10/02 02:21:28;;;;;;;23.33;5.05;;;;;;;12.44;100.00;101471.63;4972159;28;20038;-34
2022/10/02 02:23:57;;;;;;;27.30;5.18;;;;;;;12.43;100.00;101472.69;4956406;28;20090;-35
2022/10/02 02:26:24;;;;;;;21.73;4.30;;;;;;;12.49;100.00;101463.66;5045973;28;20047;-35
2022/10/02 02:28:55;;;;;;;24.73;5.03;;;;;;;12.49;100.00;101469.09;5053776;28;20031;-35
2022/10/02 02:31:27;;;;;;;27.05;4.97;;;;;;;12.48;100.00;101458.44;5053317;28;20025;-35
2022/10/02 02:34:04;;;;;;;26.60;5.55;;;;;;;12.50;100.00;101470.75;5053647;28;20024;-35
2022/10/02 02:36:37;;;;;;;26.60;5.03;;;;;;;12.52;100.00;101465.91;5053230;28;20100;-35
2022/10/02 02:39:08;;;;;;;28.65;6.15;;;;;;;12.52;100.00;101463.19;5053469;28;20106;-35
2022/10/02 02:41:39;;;;;;;21.17;5.07;;;;;;;12.50;100.00;101462.59;5052898;28;20032;-34
2022/10/02 02:44:12;;;;;;;23.60;5.45;;;;;;;12.41;100.00;101444.97;5053625;28;20104;-34
2022/10/02 02:47:03;;;;;;;31.00;5.60;;;;;;;12.51;100.00;101463.44;5052997;28;20033;-34
2022/10/02 02:49:36;;;;;;;24.85;5.10;;;;;;;12.53;100.00;101469.44;5052591;28;20060;-34
2022/10/02 02:52:06;;;;;;;25.33;5.63;;;;;;;12.51;100.00;101477.00;5052967;28;20052;-34
2022/10/02 02:54:45;;;;;;;30.92;5.07;;;;;;;12.53;100.00;101453.16;5052929;28;20033;-35
2022/10/02 02:57:12;;;;;;;33.20;5.72;;;;;;;12.55;100.00;101460.03;5052720;28;20056;-34
2022/10/02 02:59:40;;;;;;;28.80;6.13;;;;;;;12.60;100.00;101470.19;5052859;28;20025;-34
2022/10/02 03:02:06;;;;;;;23.52;5.93;;;;;;;12.50;100.00;101459.88;5052553;28;20484;-35
2022/10/02 03:04:31;;;;;;;21.60;4.80;;;;;;;12.61;100.00;101472.66;5052340;28;20059;-35
2022/10/02 03:07:01;;;;;;;27.13;5.20;;;;;;;12.60;100.00;101465.59;5052569;28;20303;-35
2022/10/02 03:09:31;;;;;;;26.20;5.13;;;;;;;12.62;100.00;101462.63;5052125;28;20033;-35
2022/10/02 03:12:05;;;;;;;25.25;5.03;;;;;;;12.61;100.00;101461.81;5053064;28;20381;-35
2022/10/02 03:15:12;;;;;;;19.90;4.80;;;;;;;12.62;100.00;101458.03;5053208;28;20033;-35
2022/10/02 03:17:52;;;;;;;21.67;4.78;;;;;;;12.61;100.00;101467.25;5053044;28;20025;-35
2022/10/02 03:20:35;;;;;;;18.55;4.45;;;;;;;12.61;100.00;101467.25;5052714;28;20051;-35
2022/10/02 03:23:15;;;;;;;19.20;3.80;;;;;;;12.62;100.00;101468.06;5052516;28;20389;-35
2022/10/02 03:25:49;;;;;;;19.55;4.88;;;;;;;12.60;100.00;101462.88;5052750;28;20060;-35
2022/10/02 03:28:20;;;;;;;19.73;3.80;;;;;;;12.61;100.00;101475.38;5052505;28;20385;-35
2022/10/02 03:30:46;;;;;;;18.45;4.20;;;;;;;12.65;100.00;101477.66;5052241;28;20052;-34
2022/10/02 03:33:14;;;;;;;18.25;4.03;;;;;;;12.65;100.00;101483.06;5052861;28;20060;-34
2022/10/02 03:35:41;;;;;;;18.38;4.07;;;;;;;12.67;100.00;101479.06;5052834;28;20068;-34
2022/10/02 03:38:11;;;;;;;16.42;4.13;;;;;;;12.69;100.00;101487.81;5053056;28;20454;-34
2022/10/02 03:40:36;;;;;;;17.83;4.00;;;;;;;12.69;100.00;101479.69;5052217;28;20485;-34
2022/10/02 03:43:03;;;;;;;16.20;3.85;;;;;;;12.69;100.00;101478.81;5052024;28;20057;-34
2022/10/02 03:45:28;;;;;;;14.82;4.22;;;;;;;12.69;100.00;101484.25;5051863;28;20442;-34
2022/10/02 03:47:54;;;;;;;18.98;4.32;;;;;;;12.64;100.00;101476.81;5052270;28;20031;-34
2022/10/02 03:50:20;;;;;;;17.10;3.87;;;;;;;12.62;100.00;101470.78;5052010;28;20064;-35
2022/10/02 03:52:47;;;;;;;15.55;3.75;;;;;;;12.68;100.00;101482.59;5052863;28;20267;-35
2022/10/02 03:55:27;;;;;;;12.02;3.33;;;;;;;12.58;100.00;101464.16;5052500;28;20078;-35
2022/10/02 03:57:54;;;;;;;13.65;3.03;;;;;;;12.60;100.00;101479.16;5051822;28;20461;-35
2022/10/02 04:00:31;;;;;;;11.70;2.80;;;;;;;12.59;100.00;101480.22;5052040;28;20435;-34
2022/10/02 04:03:04;;;;;;;11.80;2.88;;;;;;;12.59;100.00;101485.66;5052617;28;20036;-35
2022/10/02 04:05:41;;;;;;;10.05;2.53;;;;;;;12.59;100.00;101482.94;5052288;28;20049;-35
2022/10/02 04:08:17;;;;;;;12.38;2.95;;;;;;;12.59;100.00;101488.38;5052487;28;20036;-34
2022/10/02 04:10:57;;;;;;;12.25;3.00;;;;;;;12.53;100.00;101481.13;5051682;28;20112;-35
2022/10/02 04:13:55;;;;;;;13.88;2.78;;;;;;;12.57;100.00;101487.75;5053454;28;20048;-35
2022/10/02 04:16:27;;;;;;;9.32;2.42;;;;;;;12.56;100.00;101480.66;4975050;28;20420;-35
2022/10/02 04:19:00;;;;;;;8.70;2.50;;;;;;;12.50;100.00;101472.63;4974703;28;20526;-35
2022/10/02 04:21:42;;;;;;;11.23;2.42;;;;;;;12.55;100.00;101478.19;4974470;28;20138;-34
2022/10/02 04:24:32;;;;;;;6.88;2.15;;;;;;;12.53;100.00;101481.13;4974992;28;20034;-34
2022/10/02 04:27:35;;;;;;;13.27;2.63;;;;;;;12.50;100.00;101476.16;4974471;28;20043;-34
2022/10/02 04:30:05;;;;;;;11.63;2.53;;;;;;;12.47;100.00;101473.91;4974802;28;20035;-34
2022/10/02 04:32:35;;;;;;;12.80;2.60;;;;;;;12.46;100.00;101474.97;4974766;28;20069;-34
2022/10/02 04:35:11;;;;;;;9.63;2.58;;;;;;;12.43;100.00;101475.41;4974377;28;20049;-34
2022/10/02 04:37:47;;;;;;;11.43;3.27;;;;;;;12.41;100.00;101479.41;4974065;28;20130;-34
2022/10/02 04:40:30;;;;;;;10.38;2.85;;;;;;;12.40;100.00;101483.19;4974215;28;20047;-34
2022/10/02 04:43:32;;;;;;;11.10;2.70;;;;;;;12.41;100.00;101487.56;4973960;28;20031;-34
2022/10/02 04:46:03;;;;;;;9.65;3.50;;;;;;;12.37;100.00;101492.59;4973838;28;20121;-34
2022/10/02 04:48:47;;;;;;;10.82;3.03;;;;;;;12.41;100.00;101503.81;4973857;28;20034;-34
2022/10/02 04:51:18;;;;;;;13.10;3.05;;;;;;;12.43;100.00;101517.97;4974042;28;20062;-35
2022/10/02 04:54:16;;;;;;;12.40;2.92;;;;;;;12.40;100.00;101505.72;5047309;28;20045;-35
2022/10/02 04:56:50;;;;;;;12.20;3.10;;;;;;;12.39;100.00;101506.75;5048869;28;20032;-34
2022/10/02 04:59:33;;;;;;;17.75;4.03;;;;;;;12.40;100.00;101513.84;5054787;28;20025;-34
2022/10/02 05:02:18;;;;;;;16.75;4.18;;;;;;;12.37;100.00;101515.13;5054375;28;20469;-35
2022/10/02 05:04:44;;;;;;;15.35;3.90;;;;;;;12.36;100.00;101515.34;5054913;28;20056;-34
2022/10/02 05:07:41;;;;;;;11.83;3.60;;;;;;;12.37;100.00;101514.28;5036727;28;20060;-35
2022/10/02 05:10:17;;;;;;;;;;;;;;;12.40;100.00;101519.28;4973643;28;20165;-35
2022/10/02 05:13:01;;;;;;;12.75;3.72;;;;;;;12.37;100.00;101528.69;4973643;28;19937;-35
2022/10/02 05:15:51;;;;;;;15.20;4.07;;;;;;;12.38;100.00;101515.94;4973719;28;20035;-34
2022/10/02 05:18:44;;;;;;;16.95;3.85;;;;;;;12.38;100.00;101516.75;4973708;28;20027;-34
2022/10/02 05:21:27;;;;;;;18.65;4.65;;;;;;;12.34;100.00;101509.31;4973538;28;20043;-34
2022/10/02 05:24:09;;;;;;;20.70;4.18;;;;;;;12.41;100.00;101518.22;4973522;28;20097;-34
2022/10/02 05:27:03;;;;;;;20.60;4.68;;;;;;;12.41;100.00;101528.22;4973290;28;20075;-34
2022/10/02 05:29:46;;;;;;;20.17;5.20;;;;;;;12.27;100.00;101508.56;4973551;28;20070;-34
2022/10/02 05:32:20;;;;;;;20.20;5.15;;;;;;;12.43;100.00;101537.78;4973197;28;20039;-35
2022/10/02 05:35:13;;;;;;;21.70;5.55;;;;;;;12.42;100.00;101538.03;4973616;28;20045;-34
2022/10/02 05:37:51;;;;;;;17.90;5.40;;;;;;;12.43;100.00;101536.97;4973411;28;20035;-34
2022/10/02 05:40:23;;;;;;;26.75;6.63;;;;;;;12.45;100.00;101556.56;4972836;28;20502;-34
2022/10/02 05:43:19;;;;;;;19.67;6.28;;;;;;;12.46;100.00;101550.09;4973029;28;20395;-34
2022/10/02 05:45:53;;;;;;;23.23;6.85;;;;;;;12.46;100.00;101550.91;4977498;28;20170;-35
2022/10/02 05:48:25;;;;;;;25.98;6.75;;;;;;;12.46;100.00;101545.47;5053808;28;20044;-35
2022/10/02 05:51:07;;;;;;;19.92;7.35;;;;;;;12.42;100.00;101533.41;5054128;28;20195;-35
2022/10/02 05:53:37;;;;;;;25.35;7.60;;;;;;;12.50;100.00;101548.59;5054582;28;20029;-35
2022/10/02 05:56:08;;;;;;;21.95;7.20;;;;;;;12.42;100.00;101538.84;5053604;28;20359;-35
2022/10/02 05:58:41;;;;;;;21.73;7.65;;;;;;;12.54;100.00;101555.19;5054232;28;20056;-34
2022/10/02 06:01:16;;;;;;;28.80;8.57;;;;;;;12.52;100.00;101557.31;5053880;28;20417;-34
2022/10/02 06:04:09;;;;;;;21.58;8.32;;;;;;;12.55;100.00;101551.44;5053829;28;20033;-35
2022/10/02 06:06:38;;;;;;;22.80;8.00;;;;;;;12.57;100.00;101557.47;5052969;28;20072;-34
2022/10/02 06:09:33;;;;;;;24.30;8.23;;;;;;;12.45;100.00;101532.16;5035679;28;20035;-34
2022/10/02 06:12:05;;;;;;;26.90;8.55;;;;;;;12.60;100.00;101559.72;5052751;28;20041;-34
2022/10/02 06:14:39;;;;;;;26.38;9.00;;;;;;;12.60;100.00;101574.13;5053583;28;20040;-34
2022/10/02 06:17:24;;;;;;;24.77;8.25;;;;;;;12.54;100.00;101572.31;5053749;28;20036;-35
2022/10/02 06:20:01;;;;;;;22.45;8.10;;;;;;;12.59;100.00;101571.63;5053244;28;20450;-35
2022/10/02 06:22:40;;;;;;;30.77;8.93;;;;;;;12.56;100.00;101567.47;5053176;28;20020;-35
2022/10/02 06:25:16;;;;;;;28.27;8.88;;;;;;;12.70;100.00;101594.47;5053328;28;20476;-35
2022/10/02 06:27:50;;;;;;;25.08;9.07;;;;;;;12.73;100.00;101591.28;5052717;28;20036;-35
2022/10/02 06:30:17;;;;;;;28.45;8.95;;;;;;;12.75;100.00;101581.88;5053227;28;20369;-35
2022/10/02 06:32:57;;;;;;;24.88;8.77;;;;;;;12.77;100.00;101577.03;5053283;28;20047;-34
2022/10/02 06:35:47;;;;;;;22.65;8.13;;;;;;;12.79;100.00;101582.25;5053216;28;20025;-34
2022/10/02 06:38:27;;;;;;;22.33;7.15;;;;;;;12.82;100.00;101587.22;5053137;28;20017;-34
2022/10/02 06:41:01;;;;;;;23.02;7.10;;;;;;;12.82;100.00;101587.22;5052877;28;20436;-34
2022/10/02 06:44:04;;;;;;;28.58;8.32;;;;;;;12.86;100.00;101588.41;5052553;28;20079;-34
2022/10/02 06:47:01;;;;;;;24.48;7.10;;;;;;;12.82;100.00;101587.22;5052978;28;20049;-35
2022/10/02 06:49:56;;;;;;;24.40;7.97;;;;;;;12.90;100.00;101597.75;4976448;28;20520;-35
2022/10/02 06:52:51;;;;;;;28.73;7.38;;;;;;;12.83;100.00;101591.56;4991347;28;20396;-34
2022/10/02 06:55:22;;;;;;;26.35;6.93;;;;;;;12.97;100.00;101612.06;4991473;28;20030;-34
2022/10/02 06:58:12;;;;;;;21.88;6.85;;;;;;;13.00;100.00;101605.38;4991262;28;20487;-35
2022/10/02 07:00:48;;;;;;;30.50;6.95;;;;;;;13.00;100.00;101616.22;4990941;28;20046;-35
2022/10/02 07:03:38;;;;;;;26.55;6.60;;;;;;;13.02;100.00;101619.53;4991501;28;20037;-35
2022/10/02 07:06:32;;;;;;;19.48;5.35;;;;;;;13.04;100.00;101614.72;4991256;28;20550;-35
2022/10/02 07:09:15;;;;;;;23.38;5.88;;;;;;;13.06;100.00;101618.84;4991206;28;20157;-35
2022/10/02 07:11:54;;;;;;;22.20;5.50;;;;;;;13.05;100.00;101616.38;4991105;28;20104;-35
2022/10/02 07:15:00;;;;;;;19.95;5.80;;;;;;;13.15;100.00;101620.19;4991342;28;20042;-35
2022/10/02 07:17:33;;;;;;;25.65;5.93;;;;;;;13.12;100.00;101608.97;4991015;28;20034;-35
2022/10/02 07:20:09;;;;;;;22.45;6.53;;;;;;;13.21;100.00;101612.19;4990985;28;20101;-35
2022/10/02 07:23:05;;;;;;;24.10;5.95;;;;;;;13.23;100.00;101619.09;4991275;28;20042;-35
2022/10/02 07:25:30;;;;;;;20.30;5.53;;;;;;;13.17;100.00;101616.41;5011650;28;20103;-35
2022/10/02 07:28:18;;;;;;;18.13;5.47;;;;;;;13.20;100.00;101622.22;5052993;28;20381;-35
2022/10/02 07:31:00;;;;;;;18.58;5.68;;;;;;;13.28;100.00;101640.13;5052576;28;20132;-35
2022/10/02 07:33:42;;;;;;;17.70;5.35;;;;;;;13.30;100.00;101632.56;5052536;28;20373;-35
2022/10/02 07:36:52;;;;;;;22.23;5.60;;;;;;;13.32;100.00;101636.72;5052530;28;20025;-35
2022/10/02 07:39:34;;;;;;;16.98;5.82;;;;;;;13.28;100.00;101624.66;4971355;28;20376;-34
2022/10/02 07:42:19;;;;;;;16.88;5.50;;;;;;;13.39;100.00;101637.47;4971754;28;20031;-34
2022/10/02 07:45:07;;;;;;;18.92;5.35;;;;;;;13.43;100.00;101637.00;4971498;28;20058;-34
2022/10/02 07:47:41;;;;;;;22.92;6.32;;;;;;;13.48;100.00;101646.13;4971390;28;20035;-34
2022/10/02 07:50:11;;;;;;;19.40;6.07;;;;;;;13.53;100.00;101640.00;4974761;28;20050;-34
2022/10/02 07:53:01;;;;;;;16.63;5.97;;;;;;;13.63;100.00;101648.41;4975460;28;20035;-34
2022/10/02 07:55:26;;;;;;;15.88;6.30;;;;;;;13.69;100.00;101652.09;4975095;28;20069;-35
2022/10/02 07:58:15;;;;;;;15.27;6.03;;;;;;;13.80;100.00;101651.28;4975218;28;20102;-35
2022/10/02 08:00:47;;;;;;;19.13;6.25;;;;;;;13.82;100.00;101641.03;4975050;28;20388;-35
2022/10/02 08:03:21;;;;;;;19.73;6.18;;;;;;;13.95;100.00;101648.94;4994593;28;20050;-35
2022/10/02 08:05:57;;;;;;;17.98;6.07;;;;;;;13.99;100.00;101652.84;4994071;28;20026;-35
2022/10/02 08:08:38;;;;;;;19.13;5.88;;;;;;;14.01;100.00;101655.38;4994205;28;20138;-35
2022/10/02 08:11:05;;;;;;;14.75;5.53;;;;;;;14.04;100.00;101669.31;4994623;28;20034;-35
2022/10/02 08:13:40;;;;;;;16.70;6.00;;;;;;;14.04;100.00;101658.44;4994443;28;20113;-35
2022/10/02 08:16:07;;;;;;;13.60;5.40;;;;;;;14.04;100.00;101663.88;5030446;28;20036;-35
2022/10/02 08:18:47;;;;;;;16.60;5.32;;;;;;;14.07;100.00;101668.84;5055793;28;20021;-35
2022/10/02 08:21:17;;;;;;;14.32;5.75;;;;;;;14.15;100.00;101679.38;5055658;28;20025;-35
2022/10/02 08:23:55;;;;;;;22.23;6.57;;;;;;;14.18;100.00;101689.78;5055757;28;20033;-35
2022/10/02 08:26:27;;;;;;;14.98;5.78;;;;;;;14.22;100.00;101690.16;5055487;28;20143;-35
2022/10/02 08:29:08;;;;;;;13.73;4.97;;;;;;;14.26;100.00;101690.53;5055786;28;20055;-35
2022/10/02 08:31:34;;;;;;;13.68;4.93;;;;;;;14.28;100.00;101688.38;5055242;28;20025;-35
2022/10/02 08:34:22;;;;;;;;;;;;;;;14.34;100.00;101692.88;5056192;28;20032;-35
2022/10/02 08:36:58;;;;;;;10.32;4.18;;;;;;;14.35;100.00;101697.28;5055824;28;20059;-35
2022/10/02 08:39:23;;;;;;;13.55;4.82;;;;;;;14.38;100.00;101685.91;5055602;28;20079;-35
2022/10/02 08:42:07;;;;;;;19.63;4.90;;;;;;;14.40;100.00;101700.13;5055019;28;20441;-35
2022/10/02 08:45:09;;;;;;;15.13;4.82;;;;;;;14.43;100.00;101710.50;5055450;28;20029;-35
2022/10/02 08:48:00;;;;;;;12.88;4.25;;;;;;;14.39;100.00;101701.16;5054463;28;20536;-35
2022/10/02 08:50:58;;;;;;;15.75;4.47;;;;;;;14.47;100.00;101714.41;5054952;28;20521;-35
2022/10/02 08:53:39;;;;;;;16.48;4.43;;;;;;;14.39;100.00;101690.28;5054947;28;20131;-35
2022/10/02 08:56:29;;;;;;;15.40;4.90;;;;;;;14.56;100.00;101721.22;5055445;28;20025;-35
2022/10/02 08:59:24;;;;;;;15.25;3.80;;;;;;;14.58;100.00;101719.06;5055036;28;20413;-35
2022/10/02 09:02:26;;;;;;;15.75;4.05;;;;;;;14.60;100.00;101727.00;5054571;28;20084;-35
2022/10/02 09:05:19;;;;;;;14.35;4.15;;;;;;;14.59;100.00;101734.34;5054801;28;20037;-35
2022/10/02 09:08:10;;;;;;;14.50;3.88;;;;;;;14.58;100.00;101738.13;5055151;28;20354;-35
2022/10/02 09:10:50;;;;;;;9.63;3.20;;;;;;;14.59;100.00;101747.09;4973366;28;20053;-35
2022/10/02 09:13:53;;;;;;;12.15;2.90;;;;;;;14.65;100.00;101748.91;4984867;28;20074;-35
2022/10/02 09:16:31;;;;;;;16.67;3.25;;;;;;;14.68;100.00;101745.69;4993291;28;20529;-35
2022/10/02 09:19:06;;;;;;;13.80;3.63;;;;;;;14.71;100.00;101738.97;4993148;28;20026;-35
2022/10/02 09:21:58;;;;;;;12.65;3.08;;;;;;;14.88;100.00;101748.06;4992856;28;20534;-35
2022/10/02 09:25:00;;;;;;;11.25;3.58;;;;;;;15.01;100.00;101750.53;4993182;28;20102;-35
2022/10/02 09:27:44;;;;;;;11.95;3.25;;;;;;;15.06;100.00;101739.75;4993020;28;20038;-35
2022/10/02 09:30:21;;;;;;;15.00;4.00;;;;;;;15.07;100.00;101733.25;4992789;28;20031;-35
2022/10/02 09:32:49;;;;;;;12.20;3.20;;;;;;;15.09;100.00;101736.56;4992764;28;20478;-35
2022/10/02 09:35:29;;;;;;;12.98;3.50;;;;;;;15.14;100.00;101739.41;4992691;28;20041;-35
2022/10/02 09:38:12;;;;;;;11.00;3.05;;;;;;;15.15;100.00;101743.78;4992910;28;20542;-35
2022/10/02 09:40:53;;;;;;;11.70;3.45;;;;;;;15.15;100.00;101735.59;4992758;28;20387;-35
2022/10/02 09:43:52;;;;;;;11.52;2.90;;;;;;;15.28;100.00;101758.22;4992781;28;20477;-35
2022/10/02 09:46:46;;;;;;;14.32;3.67;;;;;;;15.29;100.00;101744.34;4994018;28;20412;-35
2022/10/02 09:49:34;;;;;;;15.75;3.28;;;;;;;15.38;100.00;101755.72;5053322;28;20029;-35
2022/10/02 09:52:25;;;;;;;13.48;2.95;;;;;;;15.46;100.00;101767.03;5053940;28;20027;-35
2022/10/02 09:55:28;;;;;;;12.57;3.08;;;;;;;15.50;100.00;101764.66;5053990;28;20021;-35
2022/10/02 09:58:31;;;;;;;14.98;3.67;;;;;;;15.67;100.00;101764.78;5053682;28;20040;-35
2022/10/02 10:01:12;;;;;;;13.30;2.83;;;;;;;15.78;100.00;101765.81;5054065;28;20029;-35
2022/10/02 10:04:08;;;;;;;12.88;3.33;;;;;;;15.97;100.00;101772.72;5053991;28;20029;-35
2022/10/02 10:07:13;;;;;;;12.45;2.72;;;;;;;16.16;100.00;101765.97;5053905;28;20033;-35
2022/10/02 10:09:56;;;;;;;13.77;3.08;;;;;;;16.17;98.84;101756.72;4972448;28;20514;-35
2022/10/02 10:12:46;;;;;;;14.93;3.10;;;;;;;16.23;99.01;101760.34;4972060;28;20154;-35
2022/10/02 10:15:21;;;;;;;12.30;2.40;;;;;;;16.27;96.99;101766.16;4953002;29;20399;-35
2022/10/02 10:18:09;;;;;;;13.25;2.90;;;;;;;16.19;96.02;101760.00;4953182;29;20051;-35
2022/10/02 10:21:12;;;;;;;15.07;3.05;;;;;;;16.38;95.87;101771.53;4952920;29;20047;-35
2022/10/02 10:24:07;;;;;;;13.93;2.85;;;;;;;16.45;95.35;101774.13;4967317;28;20038;-35
2022/10/02 10:27:05;;;;;;;10.45;2.70;;;;;;;16.47;95.93;101783.69;4972262;28;20474;-35
2022/10/02 10:29:55;;;;;;;11.40;2.75;;;;;;;16.41;94.17;101778.41;4972272;28;20038;-35
2022/10/02 10:32:51;;;;;;;15.93;3.15;;;;;;;16.45;94.74;101802.25;4972028;28;20038;-35
2022/10/02 10:35:28;;;;;;;9.85;2.58;;;;;;;16.33;93.68;101781.53;4972551;28;20487;-37
2022/10/02 10:41:16;;;;;;;12.82;3.28;;;;;;;16.32;94.34;101805.28;4972636;28;20174;-35
2022/10/02 10:44:17;;;;;;;11.52;3.20;;;;;;;16.40;92.92;101806.78;4933958;29;20047;-35
2022/10/02 10:47:01;;;;;;;11.60;2.97;;;;;;;16.47;90.14;101799.25;4933607;29;20393;-35
2022/10/02 10:50:10;;;;;;;15.05;2.75;;;;;;;16.58;90.36;101811.16;4933152;29;20123;-35
2022/10/02 10:53:02;;;;;;;8.32;2.25;;;;;;;16.61;90.10;101816.16;4852515;29;20124;-35
2022/10/02 10:56:06;;;;;;;11.45;2.47;;;;;;;16.65;88.87;101809.94;4840069;29;20124;-35
2022/10/02 10:58:45;;;;;;;11.35;2.65;;;;;;;16.63;86.98;101795.69;4840449;29;20045;-35
2022/10/02 11:01:18;;;;;;;8.05;2.28;;;;;;;16.63;84.75;101809.34;4840060;29;20046;-35
2022/10/02 11:04:00;;;;;;;10.95;2.42;;;;;;;16.72;84.60;101807.06;4840184;29;20074;-35
2022/10/02 11:06:50;;;;;;;8.30;2.40;;;;;;;16.84;85.59;101804.25;4840357;29;20030;-35
2022/10/02 11:09:27;;;;;;;10.15;2.55;;;;;;;16.84;81.63;101798.81;4840223;29;20042;-35
2022/10/02 11:12:32;;;;;;;9.55;2.40;;;;;;;16.93;82.75;101803.59;4840007;29;20041;-35
2022/10/02 11:15:12;;;;;;;12.43;2.25;;;;;;;16.99;83.27;101809.97;4839910;29;20042;-35
2022/10/02 11:18:00;;;;;;;15.93;3.03;;;;;;;17.03;83.99;101807.53;4839944;29;20192;-34
2022/10/02 11:20:42;;;;;;;13.70;3.20;;;;;;;17.01;82.45;101810.53;4875754;29;20043;-34
2022/10/02 11:23:24;;;;;;;10.05;2.67;;;;;;;16.98;82.34;101797.34;4935312;29;20051;-35
2022/10/02 11:26:00;;;;;;;8.63;1.95;;;;;;;17.02;81.83;101814.06;4937295;29;20116;-35
2022/10/02 11:28:27;;;;;;;9.00;2.40;;;;;;;17.02;81.15;101825.84;4942731;28;20598;-35
2022/10/02 11:31:07;;;;;;;7.95;2.13;;;;;;;16.91;80.94;101821.28;5054922;28;20044;-35
2022/10/02 11:33:56;;;;;;;10.10;2.95;;;;;;;16.83;83.36;101825.25;5056780;28;20472;-35
2022/10/02 11:36:41;;;;;;;8.48;2.10;;;;;;;16.75;84.37;101833.88;5056887;28;20021;-35
2022/10/02 11:39:54;;;;;;;10.40;2.65;;;;;;;16.64;84.41;101832.00;5056615;28;20048;-35
2022/10/02 11:42:44;;;;;;;10.10;2.60;;;;;;;16.47;83.24;101827.38;4975667;28;20047;-35
2022/10/02 11:45:35;;;;;;;5.68;2.00;;;;;;;16.38;83.99;101837.03;4975119;28;20050;-35
2022/10/02 11:48:52;;;;;;;8.65;2.42;;;;;;;16.37;85.05;101837.28;4975254;28;20038;-35
2022/10/02 11:51:18;;;;;;;9.57;2.30;;;;;;;16.23;83.92;101836.75;4975141;28;20483;-35
2022/10/02 11:53:58;;;;;;;;;;;;;;;16.30;86.24;101826.53;4975861;28;20035;-35
2022/10/02 11:56:37;;;;;;;10.60;2.30;;;;;;;16.33;85.11;101852.50;4975407;28;20282;-35
2022/10/02 11:59:30;;;;;;;9.85;2.20;;;;;;;16.34;85.47;101846.78;4975041;28;20046;-35
2022/10/02 12:02:04;;;;;;;12.95;2.80;;;;;;;16.39;85.84;101838.69;4975191;28;20511;-35
2022/10/02 12:05:12;;;;;;;7.97;2.28;;;;;;;16.45;84.92;101848.66;4974814;28;20117;-35
2022/10/02 12:08:02;;;;;;;10.93;2.50;;;;;;;16.47;83.48;101842.94;4898593;29;20037;-35
2022/10/02 12:10:38;;;;;;;11.38;2.83;;;;;;;16.81;82.62;101853.91;4898612;29;20048;-35
2022/10/02 12:13:15;;;;;;;7.85;2.28;;;;;;;17.11;82.13;101854.38;4898804;29;20045;-35
2022/10/02 12:15:57;;;;;;;11.80;3.45;;;;;;;17.28;81.34;101837.97;4898878;29;20092;-35
2022/10/02 12:18:35;;;;;;;10.13;2.85;;;;;;;17.41;76.78;101837.59;4928141;29;20043;-35